createdAt,value
2019-06-01T00:00:11.818Z,5.23
2019-06-01T00:02:38.697Z,4.57
2019-06-01T00:05:07.731Z,4.83
2019-06-01T00:07:36.554Z,5.00
2019-06-01T00:10:07.177Z,4.70
2019-06-01T00:12:50.000Z,5.33
2019-06-01T00:15:07.795Z,5.30
2019-06-01T00:17:36.731Z,4.80
2019-06-01T00:20:05.839Z,5.13
2019-06-01T00:22:34.479Z,5.63
2019-06-01T00:25:03.707Z,5.47
2019-06-01T00:27:32.429Z,5.00
2019-06-01T00:30:01.063Z,5.10
2019-06-01T00:32:30.075Z,6.03
2019-06-01T00:34:58.732Z,5.87
2019-06-01T00:37:28.995Z,6.40
2019-06-01T00:39:57.554Z,5.90
2019-06-01T00:42:26.147Z,6.17
2019-06-01T00:44:54.789Z,6.30
2019-06-01T00:47:23.351Z,5.90
2019-06-01T00:49:53.120Z,6.00
2019-06-01T00:52:21.795Z,6.80
2019-06-01T00:54:51.686Z,6.27
2019-06-01T00:57:22.256Z,6.10
2019-06-01T00:59:50.653Z,6.07
2019-06-01T01:02:19.631Z,6.20
2019-06-01T01:04:52.489Z,6.60
2019-06-01T01:07:21.525Z,6.27
2019-06-01T01:09:50.841Z,6.17
2019-06-01T01:12:19.483Z,6.40
2019-06-01T01:14:49.161Z,6.80
2019-06-01T01:17:17.880Z,6.70
2019-06-01T01:19:47.613Z,6.77
2019-06-01T01:22:16.579Z,6.20
2019-06-01T01:24:46.315Z,6.67
2019-06-01T01:27:14.940Z,6.97
2019-06-01T01:29:43.861Z,6.67
2019-06-01T01:32:12.428Z,6.67
2019-06-01T01:34:41.103Z,6.80
2019-06-01T01:37:09.737Z,6.47
2019-06-01T01:39:38.611Z,6.47
2019-06-01T01:42:07.368Z,6.37
2019-06-01T01:44:35.995Z,6.13
2019-06-01T01:47:04.648Z,6.17
2019-06-01T01:49:33.328Z,5.90
2019-06-01T01:52:02.307Z,5.60
2019-06-01T01:54:30.896Z,5.47
2019-06-01T01:56:59.822Z,5.87
2019-06-01T01:59:28.374Z,5.60
2019-06-01T02:01:56.930Z,5.30
2019-06-01T02:04:25.610Z,5.30
2019-06-01T02:06:54.552Z,5.20
2019-06-01T02:09:23.579Z,5.00
2019-06-01T02:11:53.211Z,5.00
2019-06-01T02:14:22.201Z,4.83
2019-06-01T02:16:51.908Z,4.80
2019-06-01T02:19:20.953Z,5.00
2019-06-01T02:21:49.555Z,4.80
2019-06-01T02:24:18.118Z,4.60
2019-06-01T02:26:46.756Z,4.70
2019-06-01T02:29:15.485Z,4.93
2019-06-01T02:31:44.482Z,4.93
2019-06-01T02:34:13.046Z,5.17
2019-06-01T02:36:42.236Z,5.20
2019-06-01T02:39:13.004Z,5.37
2019-06-01T02:41:41.925Z,5.20
2019-06-01T02:44:10.527Z,5.10
2019-06-01T02:46:39.160Z,5.67
2019-06-01T02:49:07.983Z,5.13
2019-06-01T02:51:37.036Z,5.53
2019-06-01T02:54:06.345Z,6.23
2019-06-01T02:56:35.243Z,5.60
2019-06-01T02:59:04.458Z,6.00
2019-06-01T03:01:38.305Z,5.73
2019-06-01T03:04:09.721Z,6.23
2019-06-01T03:06:41.103Z,6.13
2019-06-01T03:09:10.494Z,6.50
2019-06-01T03:11:41.492Z,5.70
2019-06-01T03:14:12.847Z,5.80
2019-06-01T03:16:43.444Z,5.97
2019-06-01T03:19:14.013Z,5.93
2019-06-01T03:21:45.679Z,6.30
2019-06-01T03:24:14.384Z,5.57
2019-06-01T03:26:45.989Z,5.77
2019-06-01T03:29:17.296Z,5.77
2019-06-01T03:31:46.271Z,5.33
2019-06-01T03:34:14.976Z,5.70
2019-06-01T03:36:44.172Z,5.90
2019-06-01T03:39:13.184Z,5.87
2019-06-01T03:41:42.255Z,5.30
2019-06-01T03:44:10.815Z,4.60
2019-06-01T03:46:39.516Z,4.47
2019-06-01T03:49:08.178Z,4.90
2019-06-01T03:51:36.924Z,5.00
2019-06-01T03:54:06.858Z,5.17
2019-06-01T03:56:35.787Z,4.80
2019-06-01T03:59:05.064Z,4.80
2019-06-01T04:01:33.919Z,5.03
2019-06-01T04:04:03.088Z,5.03
2019-06-01T04:06:31.735Z,5.00
2019-06-01T04:09:01.809Z,4.73
2019-06-01T04:11:31.003Z,4.97
2019-06-01T04:13:59.718Z,5.03
2019-06-01T04:16:28.292Z,5.00
2019-06-01T04:18:58.397Z,5.23
2019-06-01T04:21:27.383Z,5.03
2019-06-01T04:23:56.119Z,5.47
2019-06-01T04:26:24.965Z,5.30
2019-06-01T04:28:53.550Z,5.27
2019-06-01T04:31:22.212Z,5.43
2019-06-01T04:33:50.877Z,5.30
2019-06-01T04:36:19.537Z,4.87
2019-06-01T04:38:48.390Z,5.07
2019-06-01T04:41:17.019Z,5.10
2019-06-01T04:43:45.963Z,4.70
2019-06-01T04:46:14.859Z,4.40
2019-06-01T04:48:43.579Z,4.80
2019-06-01T04:51:13.350Z,4.80
2019-06-01T04:53:42.254Z,4.50
2019-06-01T04:56:11.237Z,4.70
2019-06-01T04:58:39.892Z,4.83
2019-06-01T05:01:08.995Z,4.53
2019-06-01T05:03:38.006Z,4.50
2019-06-01T05:06:07.238Z,4.70
2019-06-01T05:08:36.403Z,4.30
2019-06-01T05:11:06.835Z,4.50
2019-06-01T05:13:35.411Z,4.37
2019-06-01T05:16:04.143Z,4.13
2019-06-01T05:18:33.088Z,4.37
2019-06-01T05:21:01.715Z,4.67
2019-06-01T05:23:30.379Z,4.50
2019-06-01T05:25:59.144Z,4.10
2019-06-01T05:28:27.810Z,4.47
2019-06-01T05:30:56.505Z,4.43
2019-06-01T05:33:36.981Z,4.40
2019-06-01T05:35:55.824Z,4.50
2019-06-01T05:38:24.446Z,4.63
2019-06-01T05:40:53.043Z,5.13
2019-06-01T05:43:21.736Z,4.60
2019-06-01T05:45:50.523Z,4.87
2019-06-01T05:48:24.805Z,5.03
2019-06-01T05:50:49.576Z,4.83
2019-06-01T05:53:19.860Z,4.77
2019-06-01T05:55:48.644Z,4.17
2019-06-01T05:58:17.349Z,4.70
2019-06-01T06:00:46.573Z,4.47
2019-06-01T06:03:19.015Z,4.13
2019-06-01T06:05:45.446Z,4.33
2019-06-01T06:08:14.478Z,4.20
2019-06-01T06:10:43.564Z,4.47
2019-06-01T06:13:13.321Z,3.77
2019-06-01T06:15:42.467Z,4.07
2019-06-01T06:18:11.655Z,4.30
2019-06-01T06:20:40.400Z,3.93
2019-06-01T06:23:09.057Z,4.03
2019-06-01T06:25:39.610Z,4.10
2019-06-01T06:28:08.035Z,4.80
2019-06-01T06:30:37.070Z,4.33
2019-06-01T06:33:05.632Z,4.40
2019-06-01T06:35:34.378Z,4.30
2019-06-01T06:38:03.306Z,4.40
2019-06-01T06:40:32.009Z,4.30
2019-06-01T06:43:00.707Z,4.40
2019-06-01T06:45:30.423Z,4.63
2019-06-01T06:47:59.022Z,4.20
2019-06-01T06:50:28.155Z,4.10
2019-06-01T06:52:56.820Z,4.70
2019-06-01T06:55:26.112Z,5.30
2019-06-01T06:57:55.275Z,4.50
2019-06-01T07:00:24.937Z,4.10
2019-06-01T07:02:53.654Z,3.90
2019-06-01T07:05:23.382Z,3.50
2019-06-01T07:07:52.201Z,4.03
2019-06-01T07:10:22.077Z,4.03
2019-06-01T07:12:51.144Z,4.65
2019-06-01T07:15:19.828Z,4.47
2019-06-01T07:17:48.858Z,4.90
2019-06-01T07:20:17.587Z,7.03
2019-06-01T07:22:46.267Z,5.40
2019-06-01T07:25:15.126Z,5.30
2019-06-01T07:27:43.683Z,4.03
2019-06-01T07:30:12.806Z,4.28
2019-06-01T07:32:41.380Z,4.35
2019-06-01T07:35:11.163Z,4.60
2019-06-01T07:37:39.830Z,5.30
2019-06-01T07:40:13.398Z,4.05
2019-06-01T07:42:39.519Z,3.83
2019-06-01T07:45:08.857Z,3.80
2019-06-01T07:47:37.752Z,3.90
2019-06-01T07:50:06.610Z,3.80
2019-06-01T07:52:35.536Z,3.75
2019-06-01T07:55:05.643Z,3.50
2019-06-01T07:57:34.203Z,4.65
2019-06-01T08:00:04.311Z,4.42
2019-06-01T08:02:33.137Z,5.00
2019-06-01T08:05:01.865Z,4.22
2019-06-01T08:07:31.304Z,4.28
2019-06-01T08:10:00.154Z,4.25
2019-06-01T08:12:29.657Z,4.58
2019-06-01T08:14:58.408Z,4.12
2019-06-01T08:17:28.110Z,3.92
2019-06-01T08:19:56.672Z,4.67
2019-06-01T08:22:25.973Z,3.85
2019-06-01T08:24:54.723Z,3.87
2019-06-01T08:27:24.378Z,3.77
2019-06-01T08:29:53.056Z,3.72
2019-06-01T08:32:22.673Z,3.40
2019-06-01T08:35:07.360Z,3.45
2019-06-01T08:37:21.687Z,3.67
2019-06-01T08:39:50.255Z,3.50
2019-06-01T08:42:18.855Z,3.25
2019-06-01T08:44:47.551Z,2.77
2019-06-01T08:47:16.219Z,2.77
2019-06-01T08:49:44.882Z,2.70
2019-06-01T08:52:13.811Z,2.95
2019-06-01T08:54:42.532Z,2.50
2019-06-01T08:57:11.187Z,2.62
2019-06-01T08:59:40.076Z,1.72
2019-06-01T09:02:08.853Z,1.98
2019-06-01T09:04:37.483Z,1.92
2019-06-01T09:07:06.164Z,2.00
2019-06-01T09:09:35.270Z,2.37
2019-06-01T09:12:04.564Z,2.30
2019-06-01T09:14:33.489Z,2.12
2019-06-01T09:17:02.509Z,2.00
2019-06-01T09:19:31.619Z,1.85
2019-06-01T09:22:00.236Z,1.50
2019-06-01T09:24:29.740Z,1.45
2019-06-01T09:26:58.983Z,1.50
2019-06-01T09:29:27.843Z,1.65
2019-06-01T09:31:56.538Z,1.50
2019-06-01T09:34:26.172Z,1.70
2019-06-01T09:36:55.645Z,1.52
2019-06-01T09:39:24.413Z,1.50
2019-06-01T09:41:53.239Z,1.30
2019-06-01T09:44:21.919Z,1.70
2019-06-01T09:46:50.551Z,1.98
2019-06-01T09:49:19.182Z,1.70
2019-06-01T09:51:48.159Z,1.72
2019-06-01T09:54:17.089Z,1.92
2019-06-01T09:56:45.740Z,1.70
2019-06-01T09:59:14.380Z,1.45
2019-06-01T10:01:43.115Z,1.37
2019-06-01T10:04:11.757Z,1.60
2019-06-01T10:06:40.428Z,1.80
2019-06-01T10:09:09.677Z,1.62
2019-06-01T10:11:38.255Z,2.10
2019-06-01T10:14:07.055Z,1.82
2019-06-01T10:16:36.792Z,1.90
2019-06-01T10:19:05.579Z,1.92
2019-06-01T10:21:34.165Z,1.60
2019-06-01T10:24:02.723Z,1.50
2019-06-01T10:26:31.408Z,1.50
2019-06-01T10:29:00.151Z,1.90
2019-06-01T10:31:28.807Z,1.57
2019-06-01T10:33:57.794Z,1.55
2019-06-01T10:36:26.615Z,1.70
2019-06-01T10:38:55.587Z,1.60
2019-06-01T10:41:24.215Z,1.80
2019-06-01T10:43:52.882Z,1.60
2019-06-01T10:46:21.527Z,1.42
2019-06-01T10:48:50.109Z,1.57
2019-06-01T10:51:19.008Z,1.30
2019-06-01T10:53:47.656Z,1.25
2019-06-01T10:56:16.238Z,1.42
2019-06-01T10:58:59.206Z,1.17
2019-06-01T11:01:15.139Z,1.05
2019-06-01T11:03:43.695Z,1.10
2019-06-01T11:06:12.643Z,1.30
2019-06-01T11:08:41.304Z,0.90
2019-06-01T11:11:10.013Z,1.70
2019-06-01T11:13:39.058Z,1.55
2019-06-01T11:16:07.950Z,1.52
2019-06-01T11:18:37.512Z,1.30
2019-06-01T11:21:06.483Z,1.87
2019-06-01T11:23:35.570Z,2.02
2019-06-01T11:26:04.455Z,1.30
2019-06-01T11:28:33.835Z,1.40
2019-06-01T11:31:02.775Z,1.40
2019-06-01T11:33:31.456Z,1.25
2019-06-01T11:36:00.451Z,1.20
2019-06-01T11:38:29.131Z,1.30
2019-06-01T11:40:58.023Z,1.30
2019-06-01T11:43:27.055Z,1.20
2019-06-01T11:45:55.687Z,1.30
2019-06-01T11:48:24.595Z,1.40
2019-06-01T11:50:53.294Z,1.40
2019-06-01T11:53:21.980Z,1.40
2019-06-01T11:55:50.719Z,1.35
2019-06-01T11:58:19.267Z,1.77
2019-06-01T12:00:48.290Z,1.50
2019-06-01T12:03:17.970Z,1.52
2019-06-01T12:05:46.631Z,1.60
2019-06-01T12:08:15.613Z,1.55
2019-06-01T12:10:45.807Z,1.52
2019-06-01T12:13:14.435Z,1.57
2019-06-01T12:15:44.178Z,1.55
2019-06-01T12:18:13.138Z,2.00
2019-06-01T12:20:42.765Z,1.40
2019-06-01T12:23:11.564Z,1.50
2019-06-01T12:25:40.205Z,1.75
2019-06-01T12:28:08.707Z,2.30
2019-06-01T12:30:37.497Z,1.95
2019-06-01T12:33:06.235Z,1.65
2019-06-01T12:35:35.358Z,1.55
2019-06-01T12:38:06.869Z,1.40
2019-06-01T12:40:34.114Z,1.60
2019-06-01T12:43:02.747Z,1.50
2019-06-01T12:45:31.323Z,1.42
2019-06-01T12:48:00.213Z,1.60
2019-06-01T12:50:28.845Z,1.25
2019-06-01T12:52:59.155Z,1.60
2019-06-01T12:55:28.001Z,1.85
2019-06-01T12:57:56.587Z,1.80
2019-06-01T13:00:25.514Z,2.00
2019-06-01T13:03:03.358Z,1.40
2019-06-01T13:05:24.794Z,1.77
2019-06-01T13:08:01.694Z,1.87
2019-06-01T13:10:24.107Z,1.80
2019-06-01T13:12:52.743Z,1.72
2019-06-01T13:15:21.503Z,1.22
2019-06-01T13:17:51.449Z,3.35
2019-06-01T13:20:20.504Z,2.45
2019-06-01T13:22:49.980Z,1.70
2019-06-01T13:25:18.905Z,1.60
2019-06-01T13:27:48.832Z,1.50
2019-06-01T13:30:17.603Z,1.40
2019-06-01T13:32:46.494Z,1.60
2019-06-01T13:35:15.529Z,1.55
2019-06-01T13:37:44.526Z,2.00
2019-06-01T13:40:13.842Z,1.70
2019-06-01T13:42:44.852Z,1.90
2019-06-01T13:45:14.115Z,1.80
2019-06-01T13:47:43.403Z,1.60
2019-06-01T13:50:12.417Z,1.80
2019-06-01T13:52:41.011Z,1.60
2019-06-01T13:55:10.439Z,2.12
2019-06-01T13:57:39.696Z,1.60
2019-06-01T14:00:09.124Z,1.70
2019-06-01T14:02:37.844Z,1.72
2019-06-01T14:05:08.052Z,1.90
2019-06-01T14:07:37.000Z,1.90
2019-06-01T14:10:07.007Z,1.92
2019-06-01T14:12:35.739Z,2.00
2019-06-01T14:15:06.929Z,1.70
2019-06-01T14:17:35.728Z,1.67
2019-06-01T14:20:08.736Z,2.10
2019-06-01T14:22:37.375Z,1.92
2019-06-01T14:25:14.331Z,1.85
2019-06-01T14:27:39.196Z,1.72
2019-06-01T14:30:09.201Z,1.87
2019-06-01T14:32:37.817Z,1.67
2019-06-01T14:35:07.338Z,1.60
2019-06-01T14:37:35.916Z,1.60
2019-06-01T14:40:06.545Z,1.67
2019-06-01T14:42:35.247Z,1.70
2019-06-01T14:45:05.828Z,1.80
2019-06-01T14:47:34.437Z,1.98
2019-06-01T14:50:04.902Z,1.60
2019-06-01T14:52:35.249Z,1.52
2019-06-01T14:55:05.561Z,1.50
2019-06-01T14:57:34.289Z,1.50
2019-06-01T15:00:03.407Z,1.67
2019-06-01T15:02:32.035Z,1.65
2019-06-01T15:05:00.928Z,1.70
2019-06-01T15:07:29.579Z,1.70
2019-06-01T15:09:58.472Z,1.77
2019-06-01T15:12:27.599Z,1.60
2019-06-01T15:14:57.502Z,1.60
2019-06-01T15:17:26.326Z,1.70
2019-06-01T15:19:56.082Z,1.98
2019-06-01T15:22:25.186Z,1.70
2019-06-01T15:24:54.255Z,1.67
2019-06-01T15:27:22.959Z,2.00
2019-06-01T15:29:52.708Z,1.42
2019-06-01T15:32:21.463Z,2.25
2019-06-01T15:34:50.556Z,1.67
2019-06-01T15:37:19.206Z,1.40
2019-06-01T15:39:47.867Z,1.55
2019-06-01T15:42:16.499Z,1.67
2019-06-01T15:44:45.067Z,1.47
2019-06-01T15:47:13.991Z,1.77
2019-06-01T15:49:42.925Z,1.50
2019-06-01T15:52:11.632Z,2.00
2019-06-01T15:54:40.490Z,1.45
2019-06-01T15:57:09.047Z,1.55
2019-06-01T15:59:37.611Z,1.65
2019-06-01T16:02:06.280Z,1.80
2019-06-01T16:04:34.983Z,1.70
2019-06-01T16:07:03.651Z,1.47
2019-06-01T16:09:42.664Z,3.15
2019-06-01T16:12:03.752Z,1.82
2019-06-01T16:14:32.794Z,2.52
2019-06-01T16:17:02.994Z,1.70
2019-06-01T16:19:32.329Z,2.22
2019-06-01T16:22:00.983Z,2.10
2019-06-01T16:24:29.899Z,1.70
2019-06-01T16:26:58.557Z,1.47
2019-06-01T16:29:27.397Z,1.57
2019-06-01T16:31:56.669Z,1.47
2019-06-01T16:34:25.763Z,1.80
2019-06-01T16:36:54.819Z,1.70
2019-06-01T16:39:23.474Z,1.67
2019-06-01T16:41:52.428Z,2.90
2019-06-01T16:44:21.297Z,2.17
2019-06-01T16:46:49.923Z,1.60
2019-06-01T16:49:18.600Z,1.70
2019-06-01T16:51:51.790Z,4.28
2019-06-01T16:54:20.811Z,1.80
2019-06-01T16:56:49.765Z,1.60
2019-06-01T16:59:18.663Z,2.75
2019-06-01T17:01:48.905Z,1.80
2019-06-01T17:04:17.592Z,1.90
2019-06-01T17:06:47.606Z,2.30
2019-06-01T17:09:16.318Z,2.40
2019-06-01T17:11:45.359Z,2.50
2019-06-01T17:14:15.695Z,1.82
2019-06-01T17:16:44.299Z,2.80
2019-06-01T17:19:13.387Z,2.45
2019-06-01T17:21:42.053Z,1.98
2019-06-01T17:24:11.140Z,2.40
2019-06-01T17:26:40.131Z,2.92
2019-06-01T17:29:08.776Z,2.58
2019-06-01T17:31:51.389Z,3.45
2019-06-01T17:34:08.715Z,3.37
2019-06-01T17:36:37.515Z,5.95
2019-06-01T17:39:08.160Z,5.40
2019-06-01T17:41:36.734Z,3.15
2019-06-01T17:44:06.822Z,1.87
2019-06-01T17:46:52.344Z,1.92
2019-06-01T17:49:06.449Z,2.75
2019-06-01T17:51:35.183Z,2.80
2019-06-01T17:54:06.342Z,2.30
2019-06-01T17:56:34.203Z,2.50
2019-06-01T17:59:03.368Z,2.90
2019-06-01T18:01:32.403Z,2.77
2019-06-01T18:04:01.736Z,3.72
2019-06-01T18:06:30.632Z,4.90
2019-06-01T18:08:59.344Z,7.30
2019-06-01T18:11:28.443Z,7.92
2019-06-01T18:13:57.003Z,6.95
2019-06-01T18:16:25.751Z,3.42
2019-06-01T18:18:55.899Z,2.40
2019-06-01T18:21:26.384Z,3.50
2019-06-01T18:23:55.382Z,3.05
2019-06-01T18:26:24.012Z,5.08
2019-06-01T18:28:52.771Z,2.75
2019-06-01T18:31:23.968Z,3.02
2019-06-01T18:33:53.572Z,8.98
2019-06-01T18:36:22.526Z,13.90
2019-06-01T18:38:51.455Z,3.02
2019-06-01T18:41:20.360Z,3.45
2019-06-01T18:43:49.019Z,5.45
2019-06-01T18:46:18.199Z,5.67
2019-06-01T18:48:46.893Z,2.90
2019-06-01T18:51:15.913Z,3.47
2019-06-01T18:53:45.008Z,2.50
2019-06-01T18:56:14.375Z,3.87
2019-06-01T18:58:43.111Z,6.20
2019-06-01T19:01:12.554Z,4.08
2019-06-01T19:03:41.358Z,3.80
2019-06-01T19:06:09.996Z,3.70
2019-06-01T19:08:38.661Z,3.27
2019-06-01T19:11:08.372Z,5.20
2019-06-01T19:13:37.057Z,4.50
2019-06-01T19:16:05.907Z,4.00
2019-06-01T19:18:34.664Z,7.90
2019-06-01T19:21:03.324Z,5.13
2019-06-01T19:23:31.881Z,6.37
2019-06-01T19:26:00.912Z,12.30
2019-06-01T19:28:29.893Z,10.93
2019-06-01T19:30:58.645Z,4.77
2019-06-01T19:33:27.286Z,8.23
2019-06-01T19:35:57.210Z,8.10
2019-06-01T19:38:27.480Z,14.23
2019-06-01T19:40:56.123Z,16.40
2019-06-01T19:43:25.076Z,12.60
2019-06-01T19:45:53.763Z,12.50
2019-06-01T19:48:22.432Z,9.83
2019-06-01T19:50:50.987Z,7.07
2019-06-01T19:53:19.655Z,7.60
2019-06-01T19:55:48.350Z,8.87
2019-06-01T19:58:18.824Z,17.53
2019-06-01T20:00:47.395Z,11.53
2019-06-01T20:03:20.015Z,10.87
2019-06-01T20:05:46.565Z,8.07
2019-06-01T20:08:16.176Z,7.87
2019-06-01T20:10:44.891Z,9.50
2019-06-01T20:13:13.495Z,14.33
2019-06-01T20:15:42.291Z,19.27
2019-06-01T20:18:12.673Z,19.00
2019-06-01T20:20:41.572Z,17.70
2019-06-01T20:23:11.267Z,11.43
2019-06-01T20:25:40.048Z,7.47
2019-06-01T20:28:08.605Z,7.30
2019-06-01T20:30:37.450Z,7.50
2019-06-01T20:33:06.090Z,6.80
2019-06-01T20:35:34.828Z,8.87
2019-06-01T20:38:04.335Z,7.67
2019-06-01T20:40:32.899Z,7.60
2019-06-01T20:43:01.565Z,6.77
2019-06-01T20:45:30.484Z,6.10
2019-06-01T20:47:59.139Z,6.27
2019-06-01T20:50:27.699Z,5.53
2019-06-01T20:52:56.355Z,5.03
2019-06-01T20:55:24.937Z,5.53
2019-06-01T20:57:53.581Z,5.50
2019-06-01T21:00:23.785Z,4.97
2019-06-01T21:02:52.418Z,5.10
2019-06-01T21:05:22.097Z,4.90
2019-06-01T21:07:50.801Z,4.57
2019-06-01T21:10:20.572Z,5.90
2019-06-01T21:12:49.194Z,5.80
2019-06-01T21:15:19.182Z,5.33
2019-06-01T21:17:50.128Z,5.30
2019-06-01T21:20:25.376Z,4.40
2019-06-01T21:22:49.188Z,4.80
2019-06-01T21:25:18.853Z,5.87
2019-06-01T21:27:47.971Z,9.03
2019-06-01T21:30:18.313Z,10.93
2019-06-01T21:32:47.045Z,10.07
2019-06-01T21:35:17.117Z,19.80
2019-06-01T21:37:45.928Z,13.70
2019-06-01T21:40:15.291Z,15.70
2019-06-01T21:43:00.344Z,14.93
2019-06-01T21:45:15.511Z,16.13
2019-06-01T21:47:44.214Z,15.37
2019-06-01T21:50:18.118Z,14.07
2019-06-01T21:52:47.295Z,8.07
2019-06-01T21:55:16.163Z,6.70
2019-06-01T21:57:44.714Z,6.00
2019-06-01T22:00:29.589Z,5.70
2019-06-01T22:02:58.176Z,4.80
2019-06-01T22:05:27.313Z,5.00
2019-06-01T22:07:56.337Z,5.03
2019-06-01T22:10:25.742Z,4.60
2019-06-01T22:12:54.447Z,4.90
2019-06-01T22:15:23.811Z,5.23
2019-06-01T22:17:52.900Z,5.60
2019-06-01T22:20:21.888Z,5.27
2019-06-01T22:22:50.994Z,5.30
2019-06-01T22:25:20.559Z,6.03
2019-06-01T22:27:49.941Z,5.30
2019-06-01T22:30:20.225Z,4.67
2019-06-01T22:32:49.224Z,4.90
2019-06-01T22:35:18.708Z,5.20
2019-06-01T22:37:47.551Z,5.47
2019-06-01T22:40:16.303Z,6.13
2019-06-01T22:42:45.283Z,5.70
2019-06-01T22:45:14.484Z,6.70
2019-06-01T22:47:43.119Z,5.73
2019-06-01T22:50:13.327Z,5.70
2019-06-01T22:52:44.463Z,5.73
2019-06-01T22:55:13.629Z,6.20
2019-06-01T22:57:43.366Z,6.17
2019-06-01T23:00:12.347Z,5.87
2019-06-01T23:02:40.943Z,6.00
2019-06-01T23:05:09.866Z,5.87
2019-06-01T23:07:38.791Z,5.90
2019-06-01T23:10:07.819Z,6.20
2019-06-01T23:12:36.781Z,6.07
2019-06-01T23:15:07.274Z,6.03
2019-06-01T23:17:35.946Z,5.70
2019-06-01T23:20:06.954Z,6.23
2019-06-01T23:22:35.591Z,5.47
2019-06-01T23:25:05.219Z,5.57
2019-06-01T23:27:33.785Z,5.70
2019-06-01T23:30:02.408Z,5.53
2019-06-01T23:32:31.000Z,5.83
2019-06-01T23:34:59.662Z,5.77
2019-06-01T23:37:28.870Z,5.87
2019-06-01T23:39:57.924Z,6.10
2019-06-01T23:42:26.785Z,5.97
2019-06-01T23:44:55.459Z,6.03
2019-06-01T23:47:25.727Z,6.17
2019-06-01T23:49:54.487Z,6.17
2019-06-01T23:52:23.563Z,6.40
2019-06-01T23:54:52.709Z,6.40
2019-06-01T23:57:21.223Z,6.20
2019-06-01T23:59:50.104Z,6.50
